createdAt,value
2019-03-31T00:00:23.047Z,0.00
2019-03-31T00:01:22.922Z,0.00
2019-03-31T00:02:22.963Z,0.00
2019-03-31T00:03:22.858Z,0.00
2019-03-31T00:04:22.834Z,0.00
2019-03-31T00:05:22.812Z,0.00
2019-03-31T00:06:22.881Z,0.00
2019-03-31T00:07:22.763Z,0.00
2019-03-31T00:08:22.792Z,0.00
2019-03-31T00:09:22.703Z,0.00
2019-03-31T00:10:22.672Z,0.00
2019-03-31T00:11:22.659Z,0.00
2019-03-31T00:12:22.722Z,0.00
2019-03-31T00:13:22.602Z,0.00
2019-03-31T00:14:22.664Z,0.00
2019-03-31T00:15:22.543Z,0.00
2019-03-31T00:16:22.556Z,0.00
2019-03-31T00:17:22.493Z,0.00
2019-03-31T00:18:22.561Z,0.00
2019-03-31T00:19:22.442Z,0.00
2019-03-31T00:20:22.472Z,0.00
2019-03-31T00:21:22.392Z,0.00
2019-03-31T00:22:22.375Z,0.00
2019-03-31T00:23:22.395Z,0.00
2019-03-31T00:24:22.314Z,0.00
2019-03-31T00:25:22.314Z,0.00
2019-03-31T00:26:22.263Z,0.00
2019-03-31T00:27:22.322Z,0.00
2019-03-31T00:28:22.201Z,0.00
2019-03-31T00:29:22.232Z,0.00
2019-03-31T00:30:22.152Z,0.00
2019-03-31T00:31:22.785Z,0.00
2019-03-31T00:32:22.106Z,0.00
2019-03-31T00:33:22.151Z,0.00
2019-03-31T00:34:22.052Z,0.00
2019-03-31T00:35:22.072Z,0.00
2019-03-31T00:36:22.001Z,0.00
2019-03-31T00:37:22.083Z,0.00
2019-03-31T00:38:21.944Z,0.00
2019-03-31T00:39:21.992Z,0.00
2019-03-31T00:40:21.893Z,0.00
2019-03-31T00:41:21.913Z,0.00
2019-03-31T00:42:21.843Z,0.00
2019-03-31T00:43:21.825Z,0.00
2019-03-31T00:44:21.786Z,0.00
2019-03-31T00:45:21.834Z,0.00
2019-03-31T00:46:21.745Z,0.00
2019-03-31T00:47:21.755Z,0.00
2019-03-31T00:48:21.697Z,0.00
2019-03-31T00:49:21.652Z,0.00
2019-03-31T00:50:21.665Z,0.00
2019-03-31T00:51:21.613Z,0.00
2019-03-31T00:52:21.681Z,0.00
2019-03-31T00:53:21.552Z,0.00
2019-03-31T00:54:21.523Z,0.00
2019-03-31T00:55:21.502Z,0.00
2019-03-31T00:56:21.503Z,0.00
2019-03-31T00:57:21.444Z,0.00
2019-03-31T00:58:21.513Z,0.00
2019-03-31T00:59:21.393Z,0.00
2019-03-31T01:00:21.364Z,0.00
2019-03-31T01:01:35.409Z,0.00
2019-03-31T01:02:21.314Z,0.00
2019-03-31T01:03:21.353Z,0.00
2019-03-31T01:04:21.265Z,0.00
2019-03-31T01:05:21.234Z,0.00
2019-03-31T01:06:21.204Z,0.00
2019-03-31T01:07:21.271Z,0.00
2019-03-31T01:08:21.154Z,0.00
2019-03-31T01:09:21.184Z,0.00
2019-03-31T01:10:35.723Z,0.00
2019-03-31T01:11:21.099Z,0.00
2019-03-31T01:12:21.047Z,0.00
2019-03-31T01:13:21.111Z,0.00
2019-03-31T01:14:20.997Z,0.00
2019-03-31T01:15:21.021Z,0.00
2019-03-31T01:16:20.959Z,0.00
2019-03-31T01:17:20.915Z,0.00
2019-03-31T01:18:20.966Z,0.00
2019-03-31T01:19:20.863Z,0.00
2019-03-31T01:20:20.854Z,0.00
2019-03-31T01:21:20.818Z,0.00
2019-03-31T01:22:20.781Z,0.00
2019-03-31T01:23:20.774Z,0.00
2019-03-31T01:24:20.743Z,0.00
2019-03-31T01:25:20.783Z,0.00
2019-03-31T01:26:20.672Z,0.00
2019-03-31T01:27:20.646Z,0.00
2019-03-31T01:28:20.632Z,0.00
2019-03-31T01:29:20.711Z,0.00
2019-03-31T01:30:20.573Z,0.00
2019-03-31T01:31:20.623Z,0.00
2019-03-31T01:32:20.502Z,0.00
2019-03-31T01:33:20.493Z,0.00
2019-03-31T01:34:20.462Z,0.00
2019-03-31T01:35:20.551Z,0.00
2019-03-31T01:36:20.414Z,0.00
2019-03-31T01:37:20.462Z,0.00
2019-03-31T01:38:20.358Z,0.00
2019-03-31T01:39:20.373Z,0.00
2019-03-31T01:40:20.306Z,0.00
2019-03-31T01:41:20.383Z,0.00
2019-03-31T01:42:20.252Z,0.00
2019-03-31T01:43:20.303Z,0.00
2019-03-31T01:44:20.201Z,0.00
2019-03-31T01:45:20.212Z,0.00
2019-03-31T01:46:20.142Z,0.00
2019-03-31T01:47:20.222Z,0.00
2019-03-31T01:48:20.090Z,0.00
2019-03-31T01:49:20.132Z,0.00
2019-03-31T01:50:20.041Z,0.00
2019-03-31T01:51:20.055Z,0.00
2019-03-31T01:52:19.982Z,0.00
2019-03-31T01:53:20.062Z,0.00
2019-03-31T01:54:19.943Z,0.00
2019-03-31T01:55:19.902Z,0.00
2019-03-31T01:56:19.881Z,0.00
2019-03-31T01:57:19.888Z,0.00
2019-03-31T01:58:19.821Z,0.00
2019-03-31T01:59:19.904Z,0.00
2019-03-31T02:00:19.803Z,0.00
2019-03-31T02:01:19.764Z,0.00
2019-03-31T02:02:19.820Z,0.00
2019-03-31T02:03:19.697Z,0.00
2019-03-31T02:04:19.735Z,0.00
2019-03-31T02:05:19.644Z,0.00
2019-03-31T02:06:19.619Z,0.00
2019-03-31T02:07:19.584Z,0.00
2019-03-31T02:08:19.661Z,0.00
2019-03-31T02:09:19.541Z,0.00
2019-03-31T02:10:19.572Z,0.00
2019-03-31T02:11:19.479Z,0.00
2019-03-31T02:12:19.480Z,0.00
2019-03-31T02:13:19.491Z,0.00
2019-03-31T02:14:19.400Z,0.00
2019-03-31T02:15:19.402Z,0.00
2019-03-31T02:16:19.350Z,0.00
2019-03-31T02:17:19.337Z,0.00
2019-03-31T02:18:19.290Z,0.00
2019-03-31T02:19:19.331Z,0.00
2019-03-31T02:20:19.240Z,0.00
2019-03-31T02:21:19.240Z,0.00
2019-03-31T02:22:19.189Z,0.00
2019-03-31T02:23:19.159Z,0.00
2019-03-31T02:24:19.159Z,0.00
2019-03-31T02:25:19.196Z,0.00
2019-03-31T02:26:19.171Z,0.00
2019-03-31T02:27:19.072Z,0.00
2019-03-31T02:28:19.080Z,0.00
2019-03-31T02:29:19.000Z,0.00
2019-03-31T02:30:18.997Z,0.00
2019-03-31T02:31:18.953Z,0.00
2019-03-31T02:32:23.876Z,0.00
2019-03-31T02:33:18.902Z,0.00
2019-03-31T02:34:18.874Z,0.00
2019-03-31T02:35:18.932Z,0.00
2019-03-31T02:36:18.812Z,0.00
2019-03-31T02:37:18.844Z,0.00
2019-03-31T02:38:18.765Z,0.00
2019-03-31T02:39:18.751Z,0.00
2019-03-31T02:40:18.710Z,0.00
2019-03-31T02:41:18.777Z,0.00
2019-03-31T02:42:18.667Z,0.00
2019-03-31T02:43:18.690Z,0.00
2019-03-31T02:44:18.602Z,0.00
2019-03-31T02:45:18.582Z,0.00
2019-03-31T02:46:18.552Z,0.00
2019-03-31T02:47:18.607Z,0.00
2019-03-31T02:48:18.502Z,0.00
2019-03-31T02:49:18.524Z,0.00
2019-03-31T02:50:18.443Z,0.00
2019-03-31T02:51:18.421Z,0.00
2019-03-31T02:52:18.430Z,0.00
2019-03-31T02:53:18.388Z,0.00
2019-03-31T02:54:18.451Z,0.00
2019-03-31T02:55:18.314Z,0.00
2019-03-31T02:56:18.284Z,0.00
2019-03-31T02:57:18.250Z,0.00
2019-03-31T02:58:18.271Z,0.00
2019-03-31T02:59:18.201Z,0.00
2019-03-31T03:00:18.180Z,0.00
2019-03-31T03:01:18.153Z,0.00
2019-03-31T03:02:18.126Z,0.00
2019-03-31T03:03:18.116Z,0.00
2019-03-31T03:04:18.071Z,0.00
2019-03-31T03:05:20.219Z,0.00
2019-03-31T03:49:03.438Z,0.00
2019-03-31T03:50:03.283Z,0.00
2019-03-31T03:52:07.329Z,0.00
2019-03-31T03:53:07.285Z,0.00
2019-03-31T03:55:11.401Z,0.00
2019-03-31T03:56:11.304Z,0.00
2019-03-31T03:58:15.353Z,0.00
2019-03-31T03:59:15.324Z,0.00
2019-03-31T04:01:19.447Z,0.00
2019-03-31T04:02:19.335Z,0.00
2019-03-31T04:04:23.439Z,0.00
2019-03-31T04:05:23.426Z,0.00
2019-03-31T04:07:16.416Z,0.00
2019-03-31T04:08:16.308Z,0.00
2019-03-31T04:10:20.424Z,0.00
2019-03-31T04:11:21.496Z,0.00
2019-03-31T04:13:24.435Z,0.00
2019-03-31T04:14:24.350Z,0.00
2019-03-31T04:16:28.453Z,0.00
2019-03-31T04:17:28.366Z,0.00
2019-03-31T04:19:32.462Z,0.00
2019-03-31T04:20:32.437Z,0.00
2019-03-31T04:22:36.484Z,0.00
2019-03-31T04:23:36.375Z,0.00
2019-03-31T04:25:40.445Z,0.00
2019-03-31T04:26:40.410Z,0.00
2019-03-31T04:28:44.527Z,0.00
2019-03-31T04:29:44.415Z,0.00
2019-03-31T04:31:48.463Z,0.00
2019-03-31T04:32:48.494Z,0.00
2019-03-31T04:33:52.231Z,0.00
2019-03-31T04:34:48.514Z,0.00
2019-03-31T04:35:48.373Z,0.00
2019-03-31T04:36:49.441Z,0.00
2019-03-31T04:37:48.400Z,0.00
2019-03-31T04:38:48.453Z,0.00
2019-03-31T04:39:48.253Z,0.00
2019-03-31T04:40:48.345Z,0.00
2019-03-31T04:41:48.175Z,0.00
2019-03-31T04:42:48.153Z,0.00
2019-03-31T04:43:48.126Z,0.00
2019-03-31T04:44:48.276Z,0.00
2019-03-31T04:45:48.068Z,0.00
2019-03-31T04:46:48.187Z,0.00
2019-03-31T04:47:48.087Z,0.00
2019-03-31T04:48:47.982Z,0.00
2019-03-31T04:49:48.115Z,4.00
2019-03-31T04:50:47.945Z,0.00
2019-03-31T04:51:48.024Z,0.00
2019-03-31T04:52:47.872Z,4.00
2019-03-31T04:53:47.845Z,4.00
2019-03-31T04:54:47.821Z,0.00
2019-03-31T04:55:47.948Z,4.00
2019-03-31T04:56:47.765Z,4.00
2019-03-31T04:57:47.854Z,0.00
2019-03-31T04:58:47.720Z,4.00
2019-03-31T04:59:47.686Z,4.00
2019-03-31T05:00:47.783Z,4.00
2019-03-31T05:01:47.634Z,8.00
2019-03-31T05:02:47.803Z,8.00
2019-03-31T05:03:47.576Z,8.00
2019-03-31T05:04:47.559Z,12.00
2019-03-31T05:05:47.538Z,12.00
2019-03-31T05:06:47.613Z,12.00
2019-03-31T05:07:47.471Z,16.00
2019-03-31T05:08:47.624Z,20.00
2019-03-31T05:09:47.423Z,20.00
2019-03-31T05:10:47.393Z,24.00
2019-03-31T05:11:47.362Z,24.00
2019-03-31T05:12:47.453Z,28.00
2019-03-31T05:13:47.302Z,32.00
2019-03-31T05:14:47.472Z,32.00
2019-03-31T05:15:47.255Z,36.00
2019-03-31T05:16:47.234Z,44.00
2019-03-31T05:17:47.383Z,44.00
2019-03-31T05:18:47.172Z,48.00
2019-03-31T05:19:47.293Z,52.00
2019-03-31T05:20:47.111Z,56.00
2019-03-31T05:21:47.095Z,60.00
2019-03-31T05:22:47.081Z,64.00
2019-03-31T05:23:47.222Z,68.00
2019-03-31T05:24:47.005Z,76.00
2019-03-31T05:25:47.181Z,80.00
2019-03-31T05:26:46.951Z,84.00
2019-03-31T05:27:46.924Z,88.00
2019-03-31T05:28:47.052Z,92.00
2019-03-31T05:29:46.872Z,100.00
2019-03-31T05:30:46.962Z,108.00
2019-03-31T05:31:46.820Z,112.00
2019-03-31T05:32:46.788Z,116.00
2019-03-31T05:33:46.892Z,124.00
2019-03-31T05:34:46.732Z,128.00
2019-03-31T05:35:46.801Z,136.00
2019-03-31T05:36:46.683Z,144.00
2019-03-31T05:37:51.339Z,148.00
2019-03-31T05:38:46.623Z,156.00
2019-03-31T05:39:46.598Z,160.00
2019-03-31T05:40:46.634Z,168.00
2019-03-31T05:41:46.552Z,176.00
2019-03-31T05:42:46.646Z,184.00
2019-03-31T05:43:46.558Z,196.00
2019-03-31T05:44:46.466Z,208.00
2019-03-31T05:45:46.565Z,216.00
2019-03-31T05:46:46.412Z,220.00
2019-03-31T05:47:46.473Z,232.00
2019-03-31T05:48:46.353Z,244.00
2019-03-31T05:49:46.332Z,252.00
2019-03-31T05:50:46.392Z,260.00
2019-03-31T05:51:46.277Z,272.00
2019-03-31T05:52:46.309Z,280.00
2019-03-31T05:53:46.215Z,292.00
2019-03-31T05:54:46.183Z,304.00
2019-03-31T05:55:46.175Z,312.00
2019-03-31T05:56:46.235Z,324.00
2019-03-31T05:57:46.104Z,340.00
2019-03-31T05:58:46.134Z,348.00
2019-03-31T05:59:46.066Z,360.00
2019-03-31T06:00:46.026Z,372.00
2019-03-31T06:01:46.003Z,384.00
2019-03-31T06:02:46.073Z,396.00
2019-03-31T06:03:45.944Z,404.00
2019-03-31T06:04:45.973Z,416.00
2019-03-31T06:05:45.883Z,428.00
2019-03-31T06:06:45.994Z,440.00
2019-03-31T06:07:45.846Z,456.00
2019-03-31T06:08:45.904Z,468.00
2019-03-31T06:09:45.796Z,476.00
2019-03-31T06:10:45.812Z,488.00
2019-03-31T06:11:45.831Z,496.00
2019-03-31T06:12:45.707Z,508.00
2019-03-31T06:13:45.741Z,520.00
2019-03-31T06:14:45.644Z,536.00
2019-03-31T06:15:45.745Z,548.00
2019-03-31T06:16:45.593Z,560.00
2019-03-31T06:17:45.574Z,568.00
2019-03-31T06:18:45.664Z,580.00
2019-03-31T06:19:45.506Z,592.00
2019-03-31T06:20:45.574Z,604.00
2019-03-31T06:21:45.464Z,608.00
2019-03-31T06:22:45.445Z,616.00
2019-03-31T06:23:45.401Z,612.00
2019-03-31T06:24:45.501Z,600.00
2019-03-31T06:25:45.353Z,588.00
2019-03-31T06:26:45.415Z,572.00
2019-03-31T06:27:45.304Z,556.00
2019-03-31T06:28:45.273Z,548.00
2019-03-31T06:29:45.335Z,544.00
2019-03-31T06:30:45.223Z,544.00
2019-03-31T06:31:45.356Z,552.00
2019-03-31T06:32:45.167Z,560.00
2019-03-31T06:33:45.149Z,580.00
2019-03-31T06:34:47.798Z,600.00
2019-03-31T06:35:45.173Z,620.00
2019-03-31T06:36:45.054Z,640.00
2019-03-31T06:37:45.183Z,664.00
2019-03-31T06:38:44.992Z,680.00
2019-03-31T06:39:44.966Z,704.00
2019-03-31T06:40:45.099Z,716.00
2019-03-31T06:41:44.927Z,716.00
2019-03-31T06:42:45.028Z,712.00
2019-03-31T06:43:44.872Z,712.00
2019-03-31T06:44:44.864Z,712.00
2019-03-31T06:45:44.814Z,716.00
2019-03-31T06:46:44.944Z,732.00
2019-03-31T06:47:44.763Z,744.00
2019-03-31T06:48:44.863Z,764.00
2019-03-31T06:49:44.702Z,780.00
2019-03-31T06:50:44.678Z,800.00
2019-03-31T06:51:44.774Z,820.00
2019-03-31T06:52:44.622Z,832.00
2019-03-31T06:53:44.686Z,856.00
2019-03-31T06:54:44.565Z,876.00
2019-03-31T06:55:44.633Z,896.00
2019-03-31T06:56:47.077Z,920.00
2019-03-31T06:57:44.617Z,948.00
2019-03-31T06:58:44.462Z,976.00
2019-03-31T06:59:44.541Z,1008.00
2019-03-31T07:00:44.413Z,1036.00
2019-03-31T07:01:44.389Z,1064.00
2019-03-31T07:02:44.353Z,1092.00
2019-03-31T07:03:44.456Z,1104.00
2019-03-31T07:04:44.303Z,1104.00
2019-03-31T07:05:44.485Z,1088.00
2019-03-31T07:06:44.251Z,1056.00
2019-03-31T07:07:44.297Z,1012.00
2019-03-31T07:08:44.392Z,964.00
2019-03-31T07:09:44.187Z,908.00
2019-03-31T07:10:44.305Z,848.00
2019-03-31T07:11:44.114Z,780.00
2019-03-31T07:12:44.091Z,704.00
2019-03-31T07:13:44.065Z,620.00
2019-03-31T07:14:44.225Z,548.00
2019-03-31T07:15:44.002Z,496.00
2019-03-31T07:16:44.145Z,464.00
2019-03-31T07:17:43.952Z,436.00
2019-03-31T07:18:43.923Z,412.00
2019-03-31T07:19:43.914Z,392.00
2019-03-31T07:20:44.075Z,376.00
2019-03-31T07:21:43.855Z,356.00
2019-03-31T07:22:43.976Z,340.00
2019-03-31T07:23:43.791Z,324.00
2019-03-31T07:24:43.892Z,312.00
2019-03-31T07:25:43.744Z,296.00
2019-03-31T07:26:43.896Z,288.00
2019-03-31T07:27:43.702Z,280.00
2019-03-31T07:28:43.803Z,280.00
2019-03-31T07:29:43.824Z,284.00
2019-03-31T07:30:43.611Z,288.00
2019-03-31T07:31:43.732Z,292.00
2019-03-31T07:32:43.552Z,292.00
2019-03-31T07:33:43.745Z,296.00
2019-03-31T07:34:43.504Z,300.00
2019-03-31T07:35:43.472Z,304.00
2019-03-31T07:36:43.665Z,308.00
2019-03-31T07:37:47.550Z,312.00
2019-03-31T07:38:43.588Z,316.00
2019-03-31T07:39:45.944Z,324.00
2019-03-31T07:40:43.383Z,324.00
2019-03-31T07:41:43.591Z,328.00
2019-03-31T07:42:43.394Z,328.00
2019-03-31T07:43:43.282Z,328.00
2019-03-31T07:44:43.316Z,320.00
2019-03-31T07:45:43.204Z,316.00
2019-03-31T07:46:43.183Z,308.00
2019-03-31T07:47:43.236Z,296.00
2019-03-31T07:48:43.120Z,288.00
2019-03-31T07:49:43.133Z,276.00
2019-03-31T07:50:43.083Z,268.00
2019-03-31T07:51:43.053Z,256.00
2019-03-31T07:52:43.043Z,248.00
2019-03-31T07:53:43.074Z,240.00
2019-03-31T07:54:42.965Z,232.00
2019-03-31T07:55:42.972Z,232.00
2019-03-31T07:56:42.901Z,236.00
2019-03-31T07:57:42.988Z,236.00
2019-03-31T07:58:43.013Z,236.00
2019-03-31T07:59:42.897Z,236.00
2019-03-31T08:00:42.922Z,240.00
2019-03-31T08:01:42.774Z,240.00
2019-03-31T08:02:42.755Z,240.00
2019-03-31T08:03:42.718Z,240.00
2019-03-31T08:04:42.839Z,244.00
2019-03-31T08:05:42.662Z,248.00
2019-03-31T08:06:42.752Z,244.00
2019-03-31T08:07:42.645Z,248.00
2019-03-31T08:08:42.584Z,248.00
2019-03-31T08:09:42.673Z,252.00
2019-03-31T08:10:42.547Z,252.00
2019-03-31T08:11:42.582Z,252.00
2019-03-31T08:12:42.479Z,252.00
2019-03-31T08:13:42.441Z,252.00
2019-03-31T08:14:42.421Z,252.00
2019-03-31T08:15:42.504Z,244.00
2019-03-31T08:16:42.379Z,240.00
2019-03-31T08:17:42.895Z,236.00
2019-03-31T08:18:42.318Z,232.00
2019-03-31T08:19:42.295Z,224.00
2019-03-31T08:20:42.333Z,224.00
2019-03-31T08:21:42.233Z,220.00
2019-03-31T08:22:42.350Z,220.00
2019-03-31T08:23:42.204Z,216.00
2019-03-31T08:24:42.261Z,216.00
2019-03-31T08:25:42.136Z,216.00
2019-03-31T08:26:42.173Z,216.00
2019-03-31T08:27:42.063Z,216.00
2019-03-31T08:28:42.182Z,220.00
2019-03-31T08:29:42.014Z,220.00
2019-03-31T08:30:41.991Z,220.00
2019-03-31T08:31:41.953Z,220.00
2019-03-31T08:32:42.026Z,220.00
2019-03-31T08:33:41.910Z,220.00
2019-03-31T08:34:42.041Z,220.00
2019-03-31T08:35:47.536Z,220.00
2019-03-31T08:36:41.824Z,220.00
2019-03-31T08:37:41.952Z,220.00
2019-03-31T08:38:41.775Z,220.00
2019-03-31T08:39:41.865Z,220.00
2019-03-31T08:40:41.729Z,220.00
2019-03-31T08:41:41.685Z,224.00
2019-03-31T08:42:41.654Z,224.00
2019-03-31T08:43:41.780Z,224.00
2019-03-31T08:44:41.601Z,228.00
2019-03-31T08:45:41.703Z,232.00
2019-03-31T08:46:41.543Z,232.00
2019-03-31T08:47:41.522Z,236.00
2019-03-31T08:48:41.626Z,248.00
2019-03-31T08:49:41.463Z,252.00
2019-03-31T08:50:41.532Z,256.00
2019-03-31T08:51:41.414Z,268.00
2019-03-31T08:52:41.382Z,276.00
2019-03-31T08:53:41.361Z,284.00
2019-03-31T08:54:41.452Z,296.00
2019-03-31T08:55:41.312Z,312.00
2019-03-31T08:56:41.365Z,320.00
2019-03-31T08:57:41.263Z,336.00
2019-03-31T08:58:41.235Z,348.00
2019-03-31T08:59:41.295Z,360.00
2019-03-31T09:00:41.162Z,372.00
2019-03-31T09:01:41.294Z,384.00
2019-03-31T09:02:41.126Z,396.00
2019-03-31T09:03:41.206Z,408.00
2019-03-31T09:04:41.051Z,420.00
2019-03-31T09:05:41.045Z,436.00
2019-03-31T09:06:41.005Z,444.00
2019-03-31T09:07:48.491Z,460.00
2019-03-31T09:09:45.061Z,484.00
2019-03-31T09:10:45.021Z,496.00
2019-03-31T09:12:49.133Z,524.00
2019-03-31T09:13:49.032Z,540.00
2019-03-31T09:15:53.050Z,572.00
2019-03-31T09:16:52.962Z,588.00
2019-03-31T09:18:56.972Z,616.00
2019-03-31T09:19:56.860Z,636.00
2019-03-31T09:22:01.005Z,672.00
2019-03-31T09:23:00.874Z,684.00
2019-03-31T09:25:04.892Z,724.00
2019-03-31T09:26:04.869Z,744.00
2019-03-31T09:28:08.801Z,784.00
2019-03-31T09:29:08.707Z,808.00
2019-03-31T09:31:13.642Z,860.00
2019-03-31T09:32:13.532Z,884.00
2019-03-31T09:34:17.570Z,944.00
2019-03-31T09:35:17.452Z,972.00
2019-03-31T09:37:10.339Z,1036.00
2019-03-31T09:38:10.315Z,1068.00
2019-03-31T09:40:14.330Z,1140.00
2019-03-31T09:41:14.211Z,1176.00
2019-03-31T09:43:18.268Z,1256.00
2019-03-31T09:44:18.120Z,1296.00
2019-03-31T09:46:22.142Z,1372.00
2019-03-31T09:47:22.031Z,1408.00
2019-03-31T09:49:26.052Z,1500.00
2019-03-31T09:50:25.952Z,1544.00
2019-03-31T09:52:29.963Z,1648.00
2019-03-31T09:53:29.862Z,1700.00
2019-03-31T09:55:33.872Z,1832.00
2019-03-31T09:56:33.781Z,1912.00
2019-03-31T09:58:37.790Z,2144.00
2019-03-31T09:59:37.767Z,2300.00
2019-03-31T10:01:41.708Z,2628.00
2019-03-31T10:02:41.600Z,2776.00
2019-03-31T10:04:45.609Z,2920.00
2019-03-31T10:05:48.018Z,3072.00
2019-03-31T10:07:49.534Z,3604.00
2019-03-31T10:08:49.432Z,3676.00
2019-03-31T10:10:53.462Z,4192.00
2019-03-31T10:11:53.409Z,4264.00
2019-03-31T10:13:57.358Z,4912.00
2019-03-31T10:14:57.252Z,4984.00
2019-03-31T10:16:50.206Z,4892.00
2019-03-31T10:17:50.103Z,4676.00
2019-03-31T10:19:55.041Z,5444.00
2019-03-31T10:20:54.944Z,5744.00
2019-03-31T10:23:00.711Z,5636.00
2019-03-31T10:24:00.602Z,5684.00
2019-03-31T10:26:05.534Z,6040.00
2019-03-31T10:27:05.445Z,6168.00
2019-03-31T10:29:09.541Z,7252.00
2019-03-31T10:30:09.452Z,7284.00
2019-03-31T10:32:14.511Z,7640.00
2019-03-31T10:33:13.421Z,7708.00
2019-03-31T10:35:17.375Z,7792.00
2019-03-31T10:36:17.273Z,7816.00
2019-03-31T10:38:22.140Z,7788.00
2019-03-31T10:39:22.112Z,7700.00
2019-03-31T10:41:26.111Z,7328.00
2019-03-31T10:42:26.030Z,7232.00
2019-03-31T10:44:30.957Z,6932.00
2019-03-31T10:45:30.870Z,7356.00
2019-03-31T10:47:23.810Z,7496.00
2019-03-31T10:48:23.711Z,7452.00
2019-03-31T10:50:27.813Z,7172.00
2019-03-31T10:51:27.721Z,7100.00
2019-03-31T10:53:31.734Z,6556.00
2019-03-31T10:54:31.648Z,6316.00
2019-03-31T10:56:36.500Z,6644.00
2019-03-31T10:57:36.533Z,6360.00
2019-03-31T10:59:41.412Z,6384.00
2019-03-31T11:00:44.327Z,6712.00
2019-03-31T11:02:46.244Z,6592.00
2019-03-31T11:03:46.143Z,6936.00
2019-03-31T11:05:51.010Z,7344.00
2019-03-31T11:06:58.873Z,7652.00
2019-03-31T11:08:55.084Z,7364.00
2019-03-31T11:09:54.981Z,7676.00
2019-03-31T11:11:59.092Z,8028.00
2019-03-31T11:12:58.999Z,8104.00
2019-03-31T11:15:03.110Z,7948.00
2019-03-31T11:16:03.010Z,7924.00
2019-03-31T11:18:07.135Z,7620.00
2019-03-31T11:19:07.030Z,7900.00
2019-03-31T11:21:11.142Z,8108.00
2019-03-31T11:22:11.039Z,7872.00
2019-03-31T11:24:15.970Z,7816.00
2019-03-31T11:25:21.217Z,7872.00
2019-03-31T11:27:08.842Z,8168.00
2019-03-31T11:28:08.790Z,8144.00
2019-03-31T11:30:13.671Z,8268.00
2019-03-31T11:31:13.572Z,8304.00
2019-03-31T11:33:18.490Z,8212.00
2019-03-31T11:34:19.779Z,8092.00
2019-03-31T11:36:23.333Z,8140.00
2019-03-31T11:37:23.246Z,8168.00
2019-03-31T11:39:27.329Z,8140.00
2019-03-31T11:40:27.250Z,8128.00
2019-03-31T11:42:32.190Z,8224.00
2019-03-31T11:43:32.091Z,8060.00
2019-03-31T11:45:37.009Z,7680.00
2019-03-31T11:46:36.922Z,7572.00
2019-03-31T11:48:41.020Z,7780.00
2019-03-31T11:49:40.944Z,7544.00
2019-03-31T11:51:45.040Z,7384.00
2019-03-31T11:52:44.952Z,7384.00
2019-03-31T11:54:49.913Z,7068.00
2019-03-31T11:55:49.794Z,7192.00
2019-03-31T11:57:54.709Z,7476.00
2019-03-31T11:58:54.620Z,7488.00
2019-03-31T12:00:58.723Z,7904.00
2019-03-31T12:01:58.631Z,8060.00
2019-03-31T12:04:03.562Z,8092.00
2019-03-31T12:05:06.195Z,8024.00
2019-03-31T12:06:56.511Z,7992.00
2019-03-31T12:07:56.419Z,7956.00
2019-03-31T12:10:01.365Z,7232.00
2019-03-31T12:11:01.265Z,7976.00
2019-03-31T12:13:05.371Z,7960.00
2019-03-31T12:14:05.284Z,8004.00
2019-03-31T12:16:10.202Z,7668.00
2019-03-31T12:17:10.109Z,7296.00
2019-03-31T12:19:15.035Z,6860.00
2019-03-31T12:20:14.939Z,6484.00
2019-03-31T12:22:19.053Z,7296.00
2019-03-31T12:23:18.970Z,7360.00
2019-03-31T12:25:23.832Z,7572.00
2019-03-31T12:26:23.856Z,7472.00
2019-03-31T12:28:27.906Z,7404.00
2019-03-31T12:29:27.801Z,7284.00
2019-03-31T12:31:32.732Z,6836.00
2019-03-31T12:32:32.641Z,6928.00
2019-03-31T12:34:36.750Z,7264.00
2019-03-31T12:35:36.674Z,6936.00
2019-03-31T12:37:41.739Z,7040.00
2019-03-31T12:38:29.599Z,6776.00
2019-03-31T12:40:34.521Z,7340.00
2019-03-31T12:41:34.452Z,7396.00
2019-03-31T12:43:39.370Z,7396.00
2019-03-31T12:44:39.282Z,7392.00
2019-03-31T12:46:44.269Z,7288.00
2019-03-31T12:47:44.114Z,7208.00
2019-03-31T12:49:49.043Z,7236.00
2019-03-31T12:50:48.950Z,7112.00
2019-03-31T12:52:53.011Z,6968.00
2019-03-31T12:53:53.000Z,6360.00
2019-03-31T12:56:00.277Z,6844.00
2019-03-31T12:56:56.980Z,7020.00
2019-03-31T12:59:01.910Z,6956.00
2019-03-31T13:00:01.810Z,6880.00
2019-03-31T13:02:05.920Z,6708.00
2019-03-31T13:03:05.828Z,6796.00
2019-03-31T13:05:10.749Z,6808.00
2019-03-31T13:06:10.659Z,6820.00
2019-03-31T13:08:15.580Z,6788.00
2019-03-31T13:09:15.495Z,6712.00
2019-03-31T13:11:19.966Z,6708.00
2019-03-31T13:12:19.979Z,6688.00
2019-03-31T13:14:24.925Z,6612.00
2019-03-31T13:15:24.760Z,6576.00
2019-03-31T13:17:18.631Z,6552.00
2019-03-31T13:18:18.538Z,6408.00
2019-03-31T13:20:23.389Z,6372.00
2019-03-31T13:21:23.420Z,6356.00
2019-03-31T13:23:28.290Z,5412.00
2019-03-31T13:24:28.198Z,6080.00
2019-03-31T13:26:33.119Z,5912.00
2019-03-31T13:27:33.041Z,5948.00
2019-03-31T13:29:38.431Z,5888.00
2019-03-31T13:30:37.890Z,5680.00
2019-03-31T13:32:42.728Z,5776.00
2019-03-31T13:33:42.702Z,5836.00
2019-03-31T13:35:46.791Z,5812.00
2019-03-31T13:36:46.720Z,5740.00
2019-03-31T13:38:51.640Z,5588.00
2019-03-31T13:39:51.553Z,5548.00
2019-03-31T13:41:56.489Z,5556.00
2019-03-31T13:42:56.390Z,5528.00
2019-03-31T13:45:00.507Z,5436.00
2019-03-31T13:46:00.463Z,5320.00
2019-03-31T13:48:05.319Z,5304.00
2019-03-31T13:49:05.233Z,5272.00
2019-03-31T13:51:09.342Z,5288.00
2019-03-31T13:52:09.250Z,5280.00
2019-03-31T13:54:13.351Z,5368.00
2019-03-31T13:55:13.270Z,5304.00
2019-03-31T13:57:07.169Z,5272.00
2019-03-31T13:58:08.574Z,5212.00
2019-03-31T14:00:11.195Z,5148.00
2019-03-31T14:01:11.095Z,5116.00
2019-03-31T14:03:15.983Z,5032.00
2019-03-31T14:04:15.891Z,4980.00
2019-03-31T14:06:20.808Z,4892.00
2019-03-31T14:07:20.724Z,4880.00
2019-03-31T14:09:24.833Z,4760.00
2019-03-31T14:10:24.748Z,4728.00
2019-03-31T14:12:28.773Z,4632.00
2019-03-31T14:13:28.755Z,4560.00
2019-03-31T14:15:32.859Z,4556.00
2019-03-31T14:16:32.770Z,4556.00
2019-03-31T14:18:37.689Z,4528.00
2019-03-31T14:19:37.600Z,4508.00
2019-03-31T14:21:41.699Z,4468.00
2019-03-31T14:22:41.619Z,4428.00
2019-03-31T14:24:46.541Z,4384.00
2019-03-31T14:25:46.461Z,4372.00
2019-03-31T14:27:50.556Z,4340.00
2019-03-31T14:28:50.519Z,4312.00
2019-03-31T14:30:55.506Z,4268.00
2019-03-31T14:31:55.302Z,4208.00
2019-03-31T14:33:59.411Z,4184.00
2019-03-31T14:34:59.321Z,4184.00
2019-03-31T14:36:52.263Z,4156.00
2019-03-31T14:37:52.170Z,4144.00
2019-03-31T14:39:56.219Z,3944.00
2019-03-31T14:40:56.180Z,3924.00
2019-03-31T14:43:01.110Z,3988.00
2019-03-31T14:44:01.031Z,3944.00
2019-03-31T14:46:05.118Z,3892.00
2019-03-31T14:47:05.030Z,3864.00
2019-03-31T14:49:09.960Z,3812.00
2019-03-31T14:50:09.872Z,3828.00
2019-03-31T14:52:26.716Z,3800.00
2019-03-31T14:53:14.713Z,3756.00
2019-03-31T14:55:18.810Z,3736.00
2019-03-31T14:56:18.725Z,3732.00
2019-03-31T14:58:22.818Z,3716.00
2019-03-31T14:59:22.730Z,3700.00
2019-03-31T15:01:27.605Z,3656.00
2019-03-31T15:02:27.620Z,3636.00
2019-03-31T15:04:32.501Z,3640.00
2019-03-31T15:05:32.399Z,3592.00
2019-03-31T15:07:25.339Z,3496.00
2019-03-31T15:08:25.261Z,3472.00
2019-03-31T15:10:18.298Z,3452.00
2019-03-31T15:11:21.706Z,3432.00
2019-03-31T15:13:22.269Z,3472.00
2019-03-31T15:14:22.184Z,3396.00
2019-03-31T15:16:26.235Z,2940.00
2019-03-31T15:17:26.196Z,2968.00
2019-03-31T15:19:31.122Z,2936.00
2019-03-31T15:20:31.029Z,2956.00
2019-03-31T15:22:35.159Z,3100.00
2019-03-31T15:23:35.039Z,3076.00
2019-03-31T15:25:42.997Z,3032.00
2019-03-31T15:26:39.881Z,2900.00
2019-03-31T15:28:45.624Z,2464.00
2019-03-31T15:29:43.879Z,2928.00
2019-03-31T15:31:48.921Z,2856.00
2019-03-31T15:32:48.729Z,2572.00
2019-03-31T15:34:53.854Z,2812.00
2019-03-31T15:35:53.660Z,2824.00
2019-03-31T15:37:58.789Z,2788.00
2019-03-31T15:39:08.675Z,2748.00
2019-03-31T15:41:03.720Z,2708.00
2019-03-31T15:42:03.529Z,2684.00
2019-03-31T15:44:08.660Z,2636.00
2019-03-31T15:45:08.628Z,2628.00
2019-03-31T15:47:01.618Z,2592.00
2019-03-31T15:48:01.424Z,2572.00
2019-03-31T15:50:06.388Z,2528.00
2019-03-31T15:51:06.369Z,2520.00
2019-03-31T15:53:11.493Z,2488.00
2019-03-31T15:54:11.300Z,2480.00